createdAt,value
2019-02-14T00:00:47.131Z,32.63
2019-02-14T00:03:16.434Z,34.63
2019-02-14T00:05:45.894Z,24.93
2019-02-14T00:08:15.258Z,27.67
2019-02-14T00:10:44.826Z,36.00
2019-02-14T00:13:14.153Z,36.70
2019-02-14T00:15:43.614Z,28.00
2019-02-14T00:18:12.982Z,30.93
2019-02-14T00:20:42.415Z,36.27
2019-02-14T00:23:11.755Z,27.83
2019-02-14T00:25:41.158Z,28.33
2019-02-14T00:28:10.758Z,30.33
2019-02-14T00:30:40.111Z,39.43
2019-02-14T00:33:09.642Z,21.93
2019-02-14T00:35:39.057Z,22.10
2019-02-14T00:38:08.526Z,30.37
2019-02-14T00:40:37.918Z,35.17
2019-02-14T00:43:07.351Z,31.43
2019-02-14T00:45:36.677Z,30.33
2019-02-14T00:48:06.090Z,25.40
2019-02-14T00:50:35.531Z,23.17
2019-02-14T00:53:04.881Z,22.87
2019-02-14T00:55:34.345Z,27.43
2019-02-14T00:58:03.714Z,26.50
2019-02-14T01:00:33.141Z,16.50
2019-02-14T01:03:02.490Z,32.07
2019-02-14T01:05:33.822Z,16.37
2019-02-14T01:08:03.139Z,32.03
2019-02-14T01:10:32.537Z,24.00
2019-02-14T01:13:01.996Z,24.53
2019-02-14T01:15:31.746Z,34.97
2019-02-14T01:18:01.116Z,29.00
2019-02-14T01:21:24.540Z,29.27
2019-02-14T01:23:54.015Z,32.03
2019-02-14T01:26:23.587Z,22.70
2019-02-14T01:28:53.276Z,32.60
2019-02-14T01:31:22.753Z,30.47
2019-02-14T01:33:52.293Z,21.97
2019-02-14T01:36:21.760Z,28.00
2019-02-14T01:38:51.160Z,29.60
2019-02-14T01:41:20.630Z,21.37
2019-02-14T01:43:50.014Z,16.63
2019-02-14T01:46:19.362Z,19.23
2019-02-14T01:48:48.919Z,25.47
2019-02-14T01:51:18.320Z,32.00
2019-02-14T01:53:47.725Z,20.90
2019-02-14T01:56:17.079Z,23.23
2019-02-14T01:58:46.482Z,21.83
2019-02-14T02:01:15.883Z,19.57
2019-02-14T02:03:45.277Z,28.00
2019-02-14T02:06:14.738Z,25.03
2019-02-14T02:08:44.126Z,23.33
2019-02-14T02:11:13.483Z,34.07
2019-02-14T02:13:42.950Z,15.53
2019-02-14T02:16:12.279Z,17.23
2019-02-14T02:18:41.759Z,24.47
2019-02-14T02:21:11.097Z,27.17
2019-02-14T02:23:40.494Z,28.93
2019-02-14T02:26:09.989Z,22.27
2019-02-14T02:28:39.398Z,23.27
2019-02-14T02:31:08.867Z,18.93
2019-02-14T02:33:38.326Z,28.60
2019-02-14T02:36:07.722Z,37.00
2019-02-14T02:38:37.259Z,28.43
2019-02-14T02:41:06.702Z,22.60
2019-02-14T02:43:36.155Z,11.97
2019-02-14T02:46:05.579Z,24.07
2019-02-14T02:48:34.914Z,40.73
2019-02-14T02:51:04.378Z,34.10
2019-02-14T02:53:33.671Z,28.03
2019-02-14T02:56:03.077Z,30.00
2019-02-14T02:58:32.414Z,10.67
2019-02-14T03:01:01.921Z,37.60
2019-02-14T03:03:31.338Z,30.90
2019-02-14T03:06:08.630Z,15.53
2019-02-14T03:08:31.824Z,15.20
2019-02-14T03:11:01.158Z,19.13
2019-02-14T03:13:30.871Z,14.17
2019-02-14T03:16:00.178Z,15.03
2019-02-14T03:18:29.577Z,26.33
2019-02-14T03:20:59.038Z,24.43
2019-02-14T03:23:28.386Z,36.00
2019-02-14T03:25:57.838Z,21.77
2019-02-14T03:28:27.236Z,19.43
2019-02-14T03:30:56.651Z,27.43
2019-02-14T03:33:26.062Z,23.67
2019-02-14T03:35:55.406Z,30.97
2019-02-14T03:38:24.826Z,28.90
2019-02-14T03:40:54.247Z,26.97
2019-02-14T03:43:23.602Z,26.37
2019-02-14T03:45:53.059Z,26.00
2019-02-14T03:48:22.403Z,26.97
2019-02-14T03:50:51.876Z,28.47
2019-02-14T03:53:21.204Z,24.40
2019-02-14T03:55:50.459Z,21.23
2019-02-14T03:58:20.110Z,10.80
2019-02-14T04:00:49.531Z,19.50
2019-02-14T04:03:18.926Z,14.80
2019-02-14T04:05:48.347Z,16.63
2019-02-14T04:08:17.766Z,32.13
2019-02-14T04:10:47.458Z,13.67
2019-02-14T04:13:16.836Z,23.60
2019-02-14T04:15:46.226Z,24.37
2019-02-14T04:18:15.593Z,31.23
2019-02-14T04:20:44.930Z,22.23
2019-02-14T04:23:14.238Z,16.87
2019-02-14T04:25:43.698Z,14.43
2019-02-14T04:28:13.034Z,23.43
2019-02-14T04:30:42.443Z,25.40
2019-02-14T04:33:12.055Z,24.67
2019-02-14T04:35:41.448Z,16.40
2019-02-14T04:38:10.782Z,32.37
2019-02-14T04:40:40.249Z,30.73
2019-02-14T04:43:09.711Z,18.43
2019-02-14T04:45:39.102Z,27.80
2019-02-14T04:48:08.506Z,16.93
2019-02-14T04:50:37.829Z,23.33
2019-02-14T04:53:07.341Z,20.20
2019-02-14T04:55:36.670Z,7.10
2019-02-14T04:58:06.053Z,21.00
2019-02-14T05:00:35.410Z,34.57
2019-02-14T05:03:04.754Z,23.37
2019-02-14T05:05:34.110Z,23.60
2019-02-14T05:08:03.469Z,26.70
2019-02-14T05:10:32.923Z,13.63
2019-02-14T05:13:02.269Z,16.47
2019-02-14T05:15:31.722Z,11.37
2019-02-14T05:18:01.033Z,29.23
2019-02-14T05:20:30.537Z,12.17
2019-02-14T05:22:59.875Z,18.70
2019-02-14T05:25:29.352Z,36.80
2019-02-14T05:27:58.688Z,33.63
2019-02-14T05:30:28.154Z,13.80
2019-02-14T05:32:57.502Z,16.57
2019-02-14T05:35:26.921Z,26.53
2019-02-14T05:37:56.329Z,10.77
2019-02-14T05:40:25.754Z,16.83
2019-02-14T05:42:55.140Z,31.33
2019-02-14T05:45:24.494Z,29.67
2019-02-14T05:47:53.954Z,28.43
2019-02-14T05:50:23.292Z,28.23
2019-02-14T05:52:52.737Z,34.53
2019-02-14T05:55:22.162Z,8.50
2019-02-14T05:57:51.503Z,29.60
2019-02-14T06:00:20.919Z,35.73
2019-02-14T06:02:50.376Z,37.37
2019-02-14T06:05:19.770Z,24.10
2019-02-14T06:07:49.103Z,53.10
2019-02-14T06:10:18.418Z,43.97
2019-02-14T06:12:47.887Z,50.30
2019-02-14T06:15:17.274Z,34.07
2019-02-14T06:17:46.818Z,42.60
2019-02-14T06:20:16.228Z,32.97
2019-02-14T06:22:45.678Z,45.33
2019-02-14T06:25:15.094Z,33.27
2019-02-14T06:27:44.499Z,32.60
2019-02-14T06:30:14.441Z,38.20
2019-02-14T06:32:43.844Z,42.93
2019-02-14T06:35:13.309Z,51.17
2019-02-14T06:37:42.802Z,45.17
2019-02-14T06:40:12.524Z,47.27
2019-02-14T06:42:42.996Z,36.37
2019-02-14T06:45:13.445Z,40.40
2019-02-14T06:47:42.826Z,34.90
2019-02-14T06:50:12.248Z,33.07
2019-02-14T06:52:45.671Z,36.27
2019-02-14T06:55:15.243Z,36.27
2019-02-14T06:57:44.617Z,42.70
2019-02-14T07:00:15.453Z,43.60
2019-02-14T07:02:44.935Z,37.97
2019-02-14T07:05:14.293Z,44.90
2019-02-14T07:07:43.740Z,31.10
2019-02-14T07:10:13.173Z,27.97
2019-02-14T07:12:42.610Z,35.23
2019-02-14T07:15:12.368Z,35.00
2019-02-14T07:17:41.778Z,30.23
2019-02-14T07:20:12.942Z,33.47
2019-02-14T07:22:42.785Z,25.20
2019-02-14T07:25:12.537Z,27.00
2019-02-14T07:27:41.987Z,29.53
2019-02-14T07:30:14.408Z,14.67
2019-02-14T07:32:43.863Z,42.47
2019-02-14T07:35:13.252Z,22.10
2019-02-14T07:37:42.677Z,17.77
2019-02-14T07:40:13.191Z,32.63
2019-02-14T07:42:42.705Z,30.97
2019-02-14T07:45:13.693Z,27.30
2019-02-14T07:47:43.110Z,26.13
2019-02-14T07:50:12.586Z,39.93
2019-02-14T07:52:41.951Z,25.73
2019-02-14T07:55:11.364Z,34.77
2019-02-14T07:57:40.883Z,31.43
2019-02-14T08:00:12.475Z,45.53
2019-02-14T08:02:41.902Z,26.77
2019-02-14T08:05:11.874Z,31.40
2019-02-14T08:07:41.331Z,31.23
2019-02-14T08:10:12.379Z,20.80
2019-02-14T08:12:41.783Z,36.73
2019-02-14T08:15:13.104Z,11.10
2019-02-14T08:17:42.630Z,22.70
2019-02-14T08:20:12.778Z,24.23
2019-02-14T08:22:42.164Z,33.50
2019-02-14T08:25:12.178Z,29.87
2019-02-14T08:27:41.822Z,20.30
2019-02-14T08:30:13.427Z,26.97
2019-02-14T08:32:42.727Z,20.17
2019-02-14T08:35:12.074Z,29.97
2019-02-14T08:37:45.718Z,20.63
2019-02-14T08:40:15.657Z,26.03
2019-02-14T08:42:45.177Z,25.67
2019-02-14T08:45:14.494Z,19.93
2019-02-14T08:47:43.929Z,30.17
2019-02-14T08:50:13.299Z,23.87
2019-02-14T08:52:42.771Z,26.97
2019-02-14T08:55:12.122Z,25.47
2019-02-14T08:57:41.662Z,26.73
2019-02-14T09:00:12.781Z,19.27
2019-02-14T09:02:42.364Z,35.43
2019-02-14T09:05:11.764Z,27.00
2019-02-14T09:07:41.154Z,26.57
2019-02-14T09:10:12.217Z,24.83
2019-02-14T09:12:41.595Z,24.43
2019-02-14T09:15:11.248Z,23.47
2019-02-14T09:17:43.402Z,22.37
2019-02-14T09:20:13.756Z,26.33
2019-02-14T09:22:43.102Z,31.33
2019-02-14T09:25:12.538Z,23.57
2019-02-14T09:27:41.903Z,25.60
2019-02-14T09:30:11.539Z,24.77
2019-02-14T09:32:40.906Z,26.90
2019-02-14T09:35:10.403Z,24.10
2019-02-14T09:37:39.774Z,36.33
2019-02-14T09:40:10.595Z,25.23
2019-02-14T09:42:40.113Z,21.97
2019-02-14T09:45:10.878Z,24.70
2019-02-14T09:47:40.250Z,31.67
2019-02-14T09:50:10.825Z,30.87
2019-02-14T09:52:41.045Z,26.23
2019-02-14T09:55:11.005Z,30.47
2019-02-14T09:57:40.470Z,34.53
2019-02-14T10:00:12.679Z,29.23
2019-02-14T10:02:42.173Z,19.67
2019-02-14T10:05:12.109Z,30.67
2019-02-14T10:07:41.518Z,21.63
2019-02-14T10:10:13.882Z,30.40
2019-02-14T10:12:43.326Z,32.57
2019-02-14T10:15:12.956Z,26.13
2019-02-14T10:17:42.434Z,29.63
2019-02-14T10:20:14.189Z,29.63
2019-02-14T10:22:43.669Z,28.20
2019-02-14T10:25:13.287Z,27.13
2019-02-14T10:27:42.626Z,16.60
2019-02-14T10:30:14.758Z,26.13
2019-02-14T10:32:44.112Z,27.57
2019-02-14T10:35:13.517Z,27.27
2019-02-14T10:37:43.136Z,18.13
2019-02-14T10:40:13.697Z,23.70
2019-02-14T10:42:43.035Z,23.70
2019-02-14T10:45:14.475Z,23.83
2019-02-14T10:47:43.873Z,22.70
2019-02-14T10:50:13.489Z,22.37
2019-02-14T10:52:42.904Z,23.63
2019-02-14T10:55:12.678Z,25.30
2019-02-14T10:57:42.126Z,21.67
2019-02-14T11:00:18.519Z,23.83
2019-02-14T11:02:48.873Z,20.40
2019-02-14T11:05:18.930Z,23.53
2019-02-14T11:07:48.296Z,27.00
2019-02-14T11:10:17.847Z,21.63
2019-02-14T11:12:47.241Z,17.87
2019-02-14T11:15:18.166Z,26.20
2019-02-14T11:17:49.058Z,21.23
2019-02-14T11:20:18.683Z,23.27
2019-02-14T11:22:48.920Z,30.77
2019-02-14T11:25:21.866Z,17.80
2019-02-14T11:27:51.286Z,19.37
2019-02-14T11:30:20.703Z,26.77
2019-02-14T11:32:50.106Z,26.60
2019-02-14T11:35:19.541Z,54.80
2019-02-14T11:37:48.892Z,25.77
2019-02-14T11:40:18.354Z,32.80
2019-02-14T11:42:47.826Z,18.63
2019-02-14T11:45:18.506Z,18.33
2019-02-14T11:47:47.991Z,23.43
2019-02-14T11:50:17.428Z,30.67
2019-02-14T11:52:46.915Z,28.37
2019-02-14T11:55:16.342Z,26.17
2019-02-14T11:57:45.802Z,21.77
2019-02-14T12:00:21.851Z,19.50
2019-02-14T12:02:55.581Z,24.60
2019-02-14T12:05:22.352Z,18.47
2019-02-14T12:07:52.049Z,30.70
2019-02-14T12:10:21.356Z,18.77
2019-02-14T12:12:50.749Z,22.07
2019-02-14T12:15:20.111Z,24.90
2019-02-14T12:17:49.450Z,22.07
2019-02-14T12:20:18.673Z,17.80
2019-02-14T12:22:48.264Z,15.40
2019-02-14T12:25:17.795Z,18.33
2019-02-14T12:27:47.230Z,16.00
2019-02-14T12:30:16.789Z,29.27
2019-02-14T12:32:46.463Z,18.03
2019-02-14T12:35:15.774Z,9.83
2019-02-14T12:37:45.271Z,6.93
2019-02-14T12:40:14.888Z,11.10
2019-02-14T12:42:44.321Z,28.43
2019-02-14T12:45:21.517Z,21.27
2019-02-14T12:47:46.714Z,17.27
2019-02-14T12:50:16.076Z,21.37
2019-02-14T12:52:45.461Z,10.43
2019-02-14T12:55:14.917Z,11.27
2019-02-14T12:57:44.355Z,25.40
2019-02-14T13:00:16.862Z,7.07
2019-02-14T13:02:46.271Z,7.87
2019-02-14T13:05:15.727Z,10.17
2019-02-14T13:07:45.108Z,13.87
2019-02-14T13:10:15.154Z,9.40
2019-02-14T13:12:44.600Z,14.43
2019-02-14T13:15:16.200Z,16.50
2019-02-14T13:17:45.574Z,21.47
2019-02-14T13:20:15.014Z,27.47
2019-02-14T13:22:44.361Z,27.10
2019-02-14T13:25:14.377Z,22.33
2019-02-14T13:27:43.887Z,23.53
2019-02-14T13:30:15.971Z,23.77
2019-02-14T13:32:45.330Z,20.93
2019-02-14T13:35:14.829Z,21.17
2019-02-14T13:37:44.324Z,22.87
2019-02-14T13:40:13.916Z,22.97
2019-02-14T13:42:43.270Z,18.80
2019-02-14T13:45:14.325Z,21.60
2019-02-14T13:47:43.691Z,20.60
2019-02-14T13:50:15.732Z,26.97
2019-02-14T13:52:44.246Z,31.00
2019-02-14T13:55:13.987Z,16.17
2019-02-14T13:57:43.386Z,31.40
2019-02-14T14:00:22.354Z,22.83
2019-02-14T14:02:51.982Z,26.87
2019-02-14T14:05:21.385Z,37.03
2019-02-14T14:07:50.783Z,21.53
2019-02-14T14:10:20.252Z,17.60
2019-02-14T14:12:49.588Z,17.47
2019-02-14T14:15:19.022Z,26.20
2019-02-14T14:17:48.461Z,23.47
2019-02-14T14:20:17.798Z,22.87
2019-02-14T14:22:47.209Z,21.53
2019-02-14T14:25:16.659Z,25.97
2019-02-14T14:27:46.033Z,17.13
2019-02-14T14:30:15.395Z,18.53
2019-02-14T14:32:44.885Z,33.90
2019-02-14T14:35:14.269Z,48.07
2019-02-14T14:37:43.750Z,23.40
2019-02-14T14:40:13.243Z,20.37
2019-02-14T14:43:07.570Z,19.20
2019-02-14T14:45:52.338Z,24.43
2019-02-14T14:48:22.159Z,17.17
2019-02-14T14:50:51.630Z,20.50
2019-02-14T14:53:20.994Z,25.40
2019-02-14T14:55:50.635Z,40.67
2019-02-14T14:58:19.998Z,40.97
2019-02-14T15:00:49.462Z,37.70
2019-02-14T15:03:18.792Z,41.50
2019-02-14T15:05:48.269Z,47.10
2019-02-14T15:08:17.672Z,38.93
2019-02-14T15:10:47.154Z,30.60
2019-02-14T15:13:16.504Z,26.87
2019-02-14T15:15:45.950Z,35.23
2019-02-14T15:18:15.357Z,34.63
2019-02-14T15:20:44.865Z,30.57
2019-02-14T15:23:14.313Z,25.87
2019-02-14T15:25:43.766Z,28.23
2019-02-14T15:28:13.132Z,23.50
2019-02-14T15:30:42.580Z,38.10
2019-02-14T15:33:11.919Z,97.60
2019-02-14T15:35:41.425Z,76.70
2019-02-14T15:38:11.955Z,43.20
2019-02-14T15:40:41.523Z,37.17
2019-02-14T15:43:10.961Z,47.53
2019-02-14T15:45:40.360Z,54.03
2019-02-14T15:48:09.774Z,64.17
2019-02-14T15:50:39.238Z,116.83
2019-02-14T15:53:08.583Z,39.43
2019-02-14T15:55:39.011Z,41.47
2019-02-14T15:58:09.324Z,48.83
2019-02-14T16:00:38.919Z,46.53
2019-02-14T16:03:08.341Z,41.53
2019-02-14T16:05:38.493Z,44.53
2019-02-14T16:08:08.892Z,50.23
2019-02-14T16:10:38.266Z,58.77
2019-02-14T16:13:09.783Z,48.43
2019-02-14T16:15:38.826Z,45.83
2019-02-14T16:18:08.224Z,73.73
2019-02-14T16:20:39.799Z,83.83
2019-02-14T16:23:08.965Z,81.73
2019-02-14T16:25:38.369Z,59.57
2019-02-14T16:28:09.327Z,67.10
2019-02-14T16:30:38.862Z,57.17
2019-02-14T16:33:08.266Z,75.60
2019-02-14T16:35:37.662Z,94.27
2019-02-14T16:38:07.045Z,82.90
2019-02-14T16:40:38.683Z,88.93
2019-02-14T16:43:07.571Z,85.80
2019-02-14T16:45:37.163Z,77.27
2019-02-14T16:48:06.782Z,75.07
2019-02-14T16:50:36.249Z,74.67
2019-02-14T16:53:05.686Z,79.00
2019-02-14T16:55:35.281Z,73.77
2019-02-14T16:58:04.698Z,72.33
2019-02-14T17:00:34.110Z,70.17
2019-02-14T17:03:03.545Z,74.97
2019-02-14T17:05:32.882Z,78.70
2019-02-14T17:08:02.407Z,78.03
2019-02-14T17:10:36.939Z,102.67
2019-02-14T17:13:02.856Z,95.40
2019-02-14T17:15:32.305Z,71.83
2019-02-14T17:18:01.709Z,77.33
2019-02-14T17:20:31.042Z,81.87
2019-02-14T17:23:00.446Z,80.63
2019-02-14T17:25:29.909Z,49.80
2019-02-14T17:27:59.263Z,75.73
2019-02-14T17:30:28.710Z,50.03
2019-02-14T17:32:58.115Z,51.77
2019-02-14T17:35:27.466Z,39.07
2019-02-14T17:37:57.031Z,46.47
2019-02-14T17:40:26.547Z,58.97
2019-02-14T17:42:55.876Z,48.87
2019-02-14T17:45:25.240Z,55.07
2019-02-14T17:47:54.680Z,49.40
2019-02-14T17:50:24.126Z,54.07
2019-02-14T17:52:53.567Z,40.30
2019-02-14T17:55:22.939Z,53.40
2019-02-14T17:57:54.082Z,54.13
2019-02-14T18:00:23.424Z,59.80
2019-02-14T18:02:52.870Z,44.63
2019-02-14T18:05:22.290Z,46.60
2019-02-14T18:07:51.639Z,35.30
2019-02-14T18:10:21.101Z,36.03
2019-02-14T18:12:50.929Z,38.23
2019-02-14T18:15:20.303Z,49.83
2019-02-14T18:17:49.641Z,45.43
2019-02-14T18:20:19.071Z,45.07
2019-02-14T18:22:48.502Z,39.17
2019-02-14T18:25:25.250Z,35.37
2019-02-14T18:27:54.747Z,38.83
2019-02-14T18:30:24.269Z,37.37
2019-02-14T18:32:53.844Z,49.03
2019-02-14T18:35:23.241Z,46.30
2019-02-14T18:37:52.652Z,46.60
2019-02-14T18:40:22.103Z,54.13
2019-02-14T18:42:51.470Z,47.90
2019-02-14T18:45:20.853Z,29.53
2019-02-14T18:47:50.311Z,57.33
2019-02-14T18:50:19.829Z,62.53
2019-02-14T18:52:49.392Z,38.03
2019-02-14T18:55:19.056Z,43.43
2019-02-14T18:57:48.543Z,46.53
2019-02-14T19:00:17.960Z,47.20
2019-02-14T19:02:47.425Z,103.27
2019-02-14T19:05:16.842Z,54.40
2019-02-14T19:07:46.268Z,79.43
2019-02-14T19:10:15.694Z,71.17
2019-02-14T19:12:45.096Z,75.67
2019-02-14T19:15:14.852Z,74.80
2019-02-14T19:17:44.292Z,72.30
2019-02-14T19:20:13.814Z,56.97
2019-02-14T19:22:43.245Z,55.87
2019-02-14T19:25:12.747Z,52.83
2019-02-14T19:27:42.227Z,42.60
2019-02-14T19:30:11.853Z,42.60
2019-02-14T19:32:41.317Z,51.40
2019-02-14T19:35:10.937Z,46.43
2019-02-14T19:37:40.388Z,44.87
2019-02-14T19:40:11.846Z,39.97
2019-02-14T19:42:41.858Z,53.50
2019-02-14T19:45:11.401Z,42.67
2019-02-14T19:47:41.174Z,44.13
2019-02-14T19:50:10.645Z,60.70
2019-02-14T19:52:40.258Z,48.33
2019-02-14T19:55:09.949Z,57.33
2019-02-14T19:57:39.555Z,67.07
2019-02-14T20:00:10.690Z,71.17
2019-02-14T20:02:40.120Z,75.47
2019-02-14T20:05:10.254Z,62.13
2019-02-14T20:07:39.820Z,96.13
2019-02-14T20:10:10.578Z,75.10
2019-02-14T20:12:40.333Z,76.03
2019-02-14T20:15:14.099Z,77.03
2019-02-14T20:17:43.654Z,97.83
2019-02-14T20:20:13.122Z,63.53
2019-02-14T20:22:42.531Z,57.97
2019-02-14T20:25:13.484Z,119.87
2019-02-14T20:27:42.946Z,91.90
2019-02-14T20:30:13.938Z,101.20
2019-02-14T20:32:53.805Z,72.30
2019-02-14T20:35:23.420Z,74.77
2019-02-14T20:37:52.883Z,74.07
2019-02-14T20:40:22.330Z,88.43
2019-02-14T20:42:52.039Z,49.17
2019-02-14T20:45:21.785Z,57.60
2019-02-14T20:47:51.267Z,35.33
2019-02-14T20:50:20.936Z,41.13
2019-02-14T20:52:50.371Z,42.63
2019-02-14T20:55:19.857Z,43.60
2019-02-14T20:57:49.356Z,39.63
2019-02-14T21:00:25.100Z,42.10
2019-02-14T21:02:54.639Z,43.50
2019-02-14T21:05:24.251Z,42.17
2019-02-14T21:07:53.843Z,38.90
2019-02-14T21:10:23.291Z,41.20
2019-02-14T21:12:53.010Z,39.23
2019-02-14T21:15:22.425Z,43.20
2019-02-14T21:17:51.851Z,42.47
2019-02-14T21:20:21.542Z,44.87
2019-02-14T21:22:50.973Z,44.77
2019-02-14T21:25:23.160Z,47.07
2019-02-14T21:27:51.622Z,55.53
2019-02-14T21:30:21.340Z,58.57
2019-02-14T21:32:50.735Z,50.93
2019-02-14T21:35:20.259Z,43.60
2019-02-14T21:37:49.788Z,49.17
2019-02-14T21:40:20.298Z,57.17
2019-02-14T21:42:49.945Z,48.83
2019-02-14T21:45:20.099Z,44.47
2019-02-14T21:47:49.554Z,55.30
2019-02-14T21:50:19.052Z,64.37
2019-02-14T21:52:48.545Z,53.47
2019-02-14T21:55:18.262Z,59.77
2019-02-14T21:57:47.897Z,56.27
2019-02-14T22:00:18.883Z,62.07
2019-02-14T22:02:48.925Z,56.10
2019-02-14T22:05:24.647Z,53.93
2019-02-14T22:07:49.547Z,57.43
2019-02-14T22:10:18.889Z,68.07
2019-02-14T22:12:48.365Z,68.20
2019-02-14T22:15:17.938Z,100.23
2019-02-14T22:17:47.502Z,86.20
2019-02-14T22:20:17.002Z,82.70
2019-02-14T22:22:46.322Z,92.37
2019-02-14T22:25:15.813Z,99.73
2019-02-14T22:27:45.253Z,86.80
2019-02-14T22:30:16.424Z,83.70
2019-02-14T22:32:46.168Z,81.77
2019-02-14T22:35:15.799Z,80.50
2019-02-14T22:37:45.258Z,83.57
2019-02-14T22:40:14.588Z,90.87
2019-02-14T22:42:47.633Z,87.97
2019-02-14T22:45:15.503Z,91.70
2019-02-14T22:47:45.426Z,86.90
2019-02-14T22:50:14.953Z,86.30
2019-02-14T22:52:44.357Z,84.40
2019-02-14T22:55:13.727Z,89.47
2019-02-14T22:57:43.223Z,76.03
2019-02-14T23:00:24.778Z,80.43
2019-02-14T23:02:54.201Z,81.60
2019-02-14T23:05:23.555Z,90.07
2019-02-14T23:07:53.032Z,83.20
2019-02-14T23:10:22.458Z,96.80
2019-02-14T23:12:55.731Z,92.83
2019-02-14T23:15:23.139Z,91.07
2019-02-14T23:17:52.553Z,86.97
2019-02-14T23:20:22.110Z,81.93
2019-02-14T23:22:51.510Z,81.17
2019-02-14T23:25:20.807Z,84.37
2019-02-14T23:27:50.213Z,81.63
2019-02-14T23:30:19.612Z,79.20
2019-02-14T23:32:49.050Z,77.20
2019-02-14T23:35:18.475Z,83.40
2019-02-14T23:37:47.827Z,83.10
2019-02-14T23:40:17.274Z,82.67
2019-02-14T23:42:46.627Z,80.67
2019-02-14T23:45:16.107Z,87.47
2019-02-14T23:47:45.527Z,76.10
2019-02-14T23:50:14.925Z,81.83
2019-02-14T23:52:45.073Z,80.93
2019-02-14T23:55:14.450Z,84.27
2019-02-14T23:57:43.910Z,87.77
